Terminal Aerodrome Forecast
Issued by NWS Sioux Falls, SD

Home | Current Version | Previous Version | Text Only | Print | Product List | Glossary On
Versions: 1 2 3 4 5 6 7 8 9 10 11 12 13
000
FTUS43 KFSD 211120
TAFSUX
TAF
KSUX 211120Z 2112/2212 16015KT P6SM BKN025
     FM211500 19014G23KT P6SM -SHRA OVC025
     FM211800 25014G24KT P6SM -SHRA BKN025
     FM211900 31016G24KT P6SM BKN040
     FM220000 31010KT P6SM SCT200=

USA.gov is the U.S. government's official web portal to all federal, state and local government web resources and services.